首页
METAR-TAF:

METAR-TAF

机场 :

Tallahassee Regional Airport

塔拉哈西, 佛罗里达州, 美国

纬度: 30-23-35N, 经度: 084-21-12W, 海拔: 24米

当前天气观测

该预报发布于23分钟前的15:53 UTC
风速3节,风向多变
温度 31°C
湿度 43%
气压 1019 hPa
能見度: 16.1公里
散云层高于5000英尺

METAR: KTLH 231553Z VRB03KT 10SM SCT050 31/17 A3010 RMK AO2 SLP190 T03060172

时间: 12:16 (16:16 UTC)

预报

该预报发布于4小时和56分钟前的11:20 UTC
预报有效从23日的 12点(UTC)到 24日的 12点(UTC)
风速5节,风向东北
能見度: 10公里
少量云层高于5000英尺

TAF: KTLH 231120Z 2312/2412 04005KT P6SM FEW050

超过4000个机场的气象观测和天气预报(METAR&TAF报告)。

可查询的气象台以黄色和红色小点在地图上表示。

将鼠标移到小点上方,可查看气象台名称。

然后点击查看天气观测和预报。

如需切换地图:点击带黑十字的绿色按钮放大地图;点击带横线的绿色按钮缩小地图;或者点击绿色箭头查看邻近地区的地图。


METAR-TAF: